createdAt,value
2023-03-04T08:35:17.648Z,141313.00
2023-03-04T08:40:21.233Z,141305.56
2023-03-04T08:45:25.770Z,141242.75
2023-03-04T08:50:30.600Z,141298.19
2023-03-04T08:55:34.209Z,141342.56
2023-03-04T09:00:38.868Z,141454.69
2023-03-04T09:05:43.624Z,141507.66
2023-03-04T09:10:47.583Z,141460.84
2023-03-04T09:15:52.302Z,141499.06
2023-03-04T09:20:57.027Z,141505.16
2023-03-04T09:26:00.381Z,141533.53
2023-03-04T09:31:03.690Z,141411.53
2023-03-04T09:36:09.548Z,141351.16
2023-03-04T09:41:17.524Z,141420.16
2023-03-04T09:46:24.638Z,141411.53
2023-03-04T09:51:42.495Z,141453.47
2023-03-04T09:56:45.835Z,141487.97
2023-03-04T10:01:50.608Z,141454.69
2023-03-04T10:06:55.563Z,141469.47
2023-03-04T10:12:01.982Z,141517.53
2023-03-04T10:17:08.630Z,141522.44
2023-03-04T10:22:18.621Z,141565.63
2023-03-04T10:27:23.703Z,141628.50
2023-03-04T10:32:30.739Z,141613.69
2023-03-04T10:37:46.089Z,141675.41
2023-03-04T10:42:51.704Z,141709.94
2023-03-04T10:47:55.895Z,141702.53
2023-03-04T10:53:00.667Z,141676.63
2023-03-04T10:58:05.076Z,141690.16
2023-03-04T11:03:28.709Z,141737.06
2023-03-04T11:08:34.547Z,141679.09
2023-03-04T11:13:52.372Z,141714.84
2023-03-04T11:18:58.417Z,141655.63
2023-03-04T11:24:04.783Z,141654.41
2023-03-04T11:29:15.207Z,141667.97
2023-03-04T11:34:28.900Z,141707.47
2023-03-04T11:39:37.480Z,141801.25
2023-03-04T11:44:41.515Z,141684.00
2023-03-04T11:49:55.423Z,141653.19
2023-03-04T11:55:05.019Z,141622.34
2023-03-04T12:00:21.424Z,141606.28
2023-03-04T12:05:33.786Z,141627.28
2023-03-04T12:10:44.019Z,141716.09
2023-03-04T12:15:52.243Z,141707.47
2023-03-04T12:21:02.248Z,141686.47
2023-03-04T12:26:08.623Z,141651.94
2023-03-04T12:31:20.523Z,141775.31
2023-03-04T12:36:28.131Z,141696.34
2023-03-04T12:41:43.122Z,141574.22
2023-03-04T12:46:53.359Z,141523.66
2023-03-04T12:52:02.663Z,141526.13
2023-03-04T12:57:14.868Z,141515.06
2023-03-04T13:02:45.393Z,141451.00
2023-03-04T13:07:56.165Z,141490.44
2023-03-04T13:13:01.552Z,141481.81
2023-03-04T13:18:25.697Z,141517.53
2023-03-04T13:23:31.894Z,141534.78
2023-03-04T13:28:37.277Z,141601.38
2023-03-04T13:33:47.325Z,141519.97
2023-03-04T13:38:58.500Z,141511.34
2023-03-04T13:44:05.050Z,141478.13
2023-03-04T13:49:09.831Z,141480.59
2023-03-04T13:54:15.376Z,141406.63
2023-03-04T13:59:31.396Z,141396.78
2023-03-04T14:04:38.062Z,141427.59
2023-03-04T14:09:41.565Z,141398.00
2023-03-04T14:14:49.105Z,141458.41
2023-03-04T14:19:55.258Z,141410.31
2023-03-04T14:24:59.964Z,141363.47
2023-03-04T14:30:41.415Z,141388.13
2023-03-04T14:35:49.406Z,141370.91
2023-03-04T14:40:54.229Z,141379.50
2023-03-04T14:45:59.739Z,141379.50
2023-03-04T14:51:05.140Z,141389.34
2023-03-04T14:56:09.841Z,141437.44
2023-03-04T15:01:17.211Z,141490.44
2023-03-04T15:06:23.132Z,141451.00
2023-03-04T15:11:27.894Z,141459.63
2023-03-04T15:16:51.320Z,141423.91
2023-03-04T15:22:05.537Z,141406.63
2023-03-04T15:27:09.988Z,141380.75
2023-03-04T15:32:15.398Z,141381.97
2023-03-04T15:37:24.493Z,141384.44
2023-03-04T15:42:28.956Z,141411.53
2023-03-04T15:47:36.176Z,141330.22
2023-03-04T15:52:41.938Z,141346.25
2023-03-04T15:57:52.245Z,141314.22
2023-03-04T16:02:57.455Z,141322.84
2023-03-04T16:08:02.658Z,141246.44
2023-03-04T16:13:06.617Z,141207.06
2023-03-04T16:18:10.530Z,141224.28
2023-03-04T16:23:17.735Z,141215.66
2023-03-04T16:28:21.261Z,141143.03
2023-03-04T16:33:24.741Z,141155.34
2023-03-04T16:38:33.426Z,141135.63
2023-03-04T16:43:38.039Z,141156.56
2023-03-04T16:48:41.806Z,141136.84
2023-03-04T16:53:49.865Z,141120.88
2023-03-04T16:58:54.974Z,141130.72
2023-03-04T17:04:02.097Z,141111.03
2023-03-04T17:09:08.228Z,141125.78
2023-03-04T17:14:11.885Z,141145.50
2023-03-04T17:19:17.317Z,141150.41
2023-03-04T17:24:22.162Z,141151.66
2023-03-04T17:29:25.834Z,141116.00
2023-03-04T17:34:30.721Z,141112.28
2023-03-04T17:39:35.660Z,141102.44
2023-03-04T17:44:39.032Z,141155.34
2023-03-04T17:49:42.401Z,141161.47
2023-03-04T17:54:47.522Z,141166.41
2023-03-04T17:59:50.848Z,141187.34
2023-03-04T18:04:54.191Z,141166.41
2023-03-04T18:10:01.199Z,141162.72
2023-03-04T18:15:05.030Z,141157.78
2023-03-04T18:20:09.465Z,141140.53
2023-03-04T18:25:14.412Z,141117.25
2023-03-04T18:30:22.901Z,141135.63
2023-03-04T18:35:28.062Z,141075.38
2023-03-04T18:46:54.644Z,141090.16
2023-03-04T18:51:58.011Z,141063.06
2023-03-04T18:57:03.243Z,141093.84
2023-03-04T19:02:17.136Z,141076.59
2023-03-04T19:07:20.557Z,141053.19
2023-03-04T19:12:23.821Z,141034.78
2023-03-04T19:17:32.688Z,141012.63
2023-03-04T19:22:36.023Z,141026.13
2023-03-04T19:27:39.383Z,141040.91
2023-03-04T19:32:46.528Z,140996.59
2023-03-04T19:37:49.842Z,140999.06
2023-03-04T19:42:53.109Z,140965.84
2023-03-04T19:48:00.251Z,140962.16
2023-03-04T19:53:03.600Z,140975.72
2023-03-04T19:58:06.959Z,140996.59
2023-03-04T20:03:16.591Z,141015.06
2023-03-04T20:08:19.873Z,140946.19
2023-03-04T20:13:23.236Z,140912.94
2023-03-04T20:18:28.007Z,140924.03
2023-03-04T20:23:33.476Z,140917.91
2023-03-04T20:28:37.076Z,140895.75
2023-03-04T20:33:41.874Z,140860.06
2023-03-04T20:38:48.385Z,140871.16
2023-03-04T20:43:51.877Z,140857.59
2023-03-04T20:48:57.157Z,140861.28
2023-03-04T20:54:00.460Z,140823.19
2023-03-04T20:59:05.522Z,140809.69
2023-03-04T21:04:10.846Z,140793.66
2023-03-04T21:09:16.169Z,140760.53
2023-03-04T21:14:22.063Z,140745.75
2023-03-04T21:19:29.062Z,140715.03
2023-03-04T21:24:33.328Z,140688.00
2023-03-04T21:29:36.879Z,140685.53
2023-03-04T21:34:45.684Z,140716.25
2023-03-04T21:39:48.987Z,140734.72
2023-03-04T21:44:52.370Z,140765.44
2023-03-04T21:49:57.292Z,140783.84
2023-03-04T21:55:00.650Z,140779.00
2023-03-04T22:00:06.914Z,140785.09
2023-03-04T22:05:19.019Z,140797.34
2023-03-04T22:10:23.129Z,140783.84
2023-03-04T22:15:26.563Z,140808.44
2023-03-04T22:20:32.550Z,140819.50
2023-03-04T22:25:35.874Z,140841.63
2023-03-04T22:30:42.234Z,140845.31
